sensor_id;sensor_type;location;lat;lon;timestamp;temperature;humidity
39103;DHT22;24847;48.218;16.414;2022-08-20T00:03:44;22.60;99.90
39103;DHT22;24847;48.218;16.414;2022-08-20T00:08:46;22.40;99.90
39103;DHT22;24847;48.218;16.414;2022-08-20T00:13:54;22.30;99.90
39103;DHT22;24847;48.218;16.414;2022-08-20T00:18:58;22.20;99.90
39103;DHT22;24847;48.218;16.414;2022-08-20T00:24:00;21.90;99.90
39103;DHT22;24847;48.218;16.414;2022-08-20T00:29:04;21.80;99.90
39103;DHT22;24847;48.218;16.414;2022-08-20T00:34:07;22.00;99.90
39103;DHT22;24847;48.218;16.414;2022-08-20T00:39:09;22.20;99.90
39103;DHT22;24847;48.218;16.414;2022-08-20T00:44:15;21.90;99.90
39103;DHT22;24847;48.218;16.414;2022-08-20T00:49:21;21.80;99.90
39103;DHT22;24847;48.218;16.414;2022-08-20T00:54:29;22.10;99.90
39103;DHT22;24847;48.218;16.414;2022-08-20T00:59:37;22.20;99.90
39103;DHT22;24847;48.218;16.414;2022-08-20T01:04:41;22.30;99.90
39103;DHT22;24847;48.218;16.414;2022-08-20T01:09:47;22.00;99.90
39103;DHT22;24847;48.218;16.414;2022-08-20T01:14:51;22.20;99.90
39103;DHT22;24847;48.218;16.414;2022-08-20T01:20:02;22.00;99.90
39103;DHT22;24847;48.218;16.414;2022-08-20T01:25:13;22.10;99.90
39103;DHT22;24847;48.218;16.414;2022-08-20T01:30:24;22.20;99.90
39103;DHT22;24847;48.218;16.414;2022-08-20T01:35:28;21.90;99.90
39103;DHT22;24847;48.218;16.414;2022-08-20T01:40:56;22.10;99.90
39103;DHT22;24847;48.218;16.414;2022-08-20T01:46:07;21.70;99.90
39103;DHT22;24847;48.218;16.414;2022-08-20T01:51:11;21.90;99.90
39103;DHT22;24847;48.218;16.414;2022-08-20T01:56:18;22.10;99.90
39103;DHT22;24847;48.218;16.414;2022-08-20T02:01:28;21.90;99.90
39103;DHT22;24847;48.218;16.414;2022-08-20T02:06:35;22.10;99.90
39103;DHT22;24847;48.218;16.414;2022-08-20T02:11:38;21.90;99.90
39103;DHT22;24847;48.218;16.414;2022-08-20T02:16:44;22.10;99.90
39103;DHT22;24847;48.218;16.414;2022-08-20T02:21:51;21.90;99.90
39103;DHT22;24847;48.218;16.414;2022-08-20T02:26:59;22.00;99.90
39103;DHT22;24847;48.218;16.414;2022-08-20T02:32:03;21.80;99.90
39103;DHT22;24847;48.218;16.414;2022-08-20T02:37:06;22.00;99.90
39103;DHT22;24847;48.218;16.414;2022-08-20T02:42:08;21.90;99.90
39103;DHT22;24847;48.218;16.414;2022-08-20T02:47:13;22.00;99.90
39103;DHT22;24847;48.218;16.414;2022-08-20T02:52:16;21.90;99.90
39103;DHT22;24847;48.218;16.414;2022-08-20T02:57:19;22.00;99.90
39103;DHT22;24847;48.218;16.414;2022-08-20T03:02:22;21.80;99.90
39103;DHT22;24847;48.218;16.414;2022-08-20T03:07:25;21.80;99.90
39103;DHT22;24847;48.218;16.414;2022-08-20T03:12:28;21.70;99.90
39103;DHT22;24847;48.218;16.414;2022-08-20T03:17:33;21.90;99.90
39103;DHT22;24847;48.218;16.414;2022-08-20T03:22:35;21.80;99.90
39103;DHT22;24847;48.218;16.414;2022-08-20T03:27:37;21.80;99.90
39103;DHT22;24847;48.218;16.414;2022-08-20T03:32:41;21.80;99.90
39103;DHT22;24847;48.218;16.414;2022-08-20T03:37:44;21.70;99.90
39103;DHT22;24847;48.218;16.414;2022-08-20T03:42:46;21.70;99.90
39103;DHT22;24847;48.218;16.414;2022-08-20T03:47:51;21.70;99.90
39103;DHT22;24847;48.218;16.414;2022-08-20T03:52:57;21.60;99.90
39103;DHT22;24847;48.218;16.414;2022-08-20T03:58:03;21.40;99.90
39103;DHT22;24847;48.218;16.414;2022-08-20T04:03:08;21.90;99.90
39103;DHT22;24847;48.218;16.414;2022-08-20T04:08:13;21.60;99.90
39103;DHT22;24847;48.218;16.414;2022-08-20T04:13:19;21.60;99.90
39103;DHT22;24847;48.218;16.414;2022-08-20T04:18:25;21.70;99.90
39103;DHT22;24847;48.218;16.414;2022-08-20T04:23:27;21.80;99.90
39103;DHT22;24847;48.218;16.414;2022-08-20T04:28:30;21.60;99.90
39103;DHT22;24847;48.218;16.414;2022-08-20T04:33:34;21.80;99.90
39103;DHT22;24847;48.218;16.414;2022-08-20T04:38:37;21.90;99.90
39103;DHT22;24847;48.218;16.414;2022-08-20T04:43:39;21.60;99.90
39103;DHT22;24847;48.218;16.414;2022-08-20T04:48:42;21.40;99.90
39103;DHT22;24847;48.218;16.414;2022-08-20T04:53:47;21.60;99.90
39103;DHT22;24847;48.218;16.414;2022-08-20T04:58:50;21.40;99.90
39103;DHT22;24847;48.218;16.414;2022-08-20T05:03:57;21.60;99.90
39103;DHT22;24847;48.218;16.414;2022-08-20T05:09:00;21.90;99.90
39103;DHT22;24847;48.218;16.414;2022-08-20T05:14:04;21.90;99.90
39103;DHT22;24847;48.218;16.414;2022-08-20T05:19:11;21.90;99.90
39103;DHT22;24847;48.218;16.414;2022-08-20T05:24:13;22.10;99.90
39103;DHT22;24847;48.218;16.414;2022-08-20T05:29:16;22.10;99.90
39103;DHT22;24847;48.218;16.414;2022-08-20T05:34:20;21.90;99.90
39103;DHT22;24847;48.218;16.414;2022-08-20T05:39:23;21.90;99.90
39103;DHT22;24847;48.218;16.414;2022-08-20T05:44:25;21.90;99.90
39103;DHT22;24847;48.218;16.414;2022-08-20T05:49:28;21.70;99.90
39103;DHT22;24847;48.218;16.414;2022-08-20T05:54:31;21.90;99.90
39103;DHT22;24847;48.218;16.414;2022-08-20T05:59:34;22.10;99.90
39103;DHT22;24847;48.218;16.414;2022-08-20T06:04:40;22.20;99.90
39103;DHT22;24847;48.218;16.414;2022-08-20T06:09:42;22.10;99.90
39103;DHT22;24847;48.218;16.414;2022-08-20T06:14:44;22.10;99.90
39103;DHT22;24847;48.218;16.414;2022-08-20T06:19:48;22.10;99.90
39103;DHT22;24847;48.218;16.414;2022-08-20T06:24:50;22.20;99.90
39103;DHT22;24847;48.218;16.414;2022-08-20T06:29:53;22.40;99.90
39103;DHT22;24847;48.218;16.414;2022-08-20T06:34:57;23.10;99.90
39103;DHT22;24847;48.218;16.414;2022-08-20T06:40:06;23.70;99.90
39103;DHT22;24847;48.218;16.414;2022-08-20T06:45:11;22.70;99.90
39103;DHT22;24847;48.218;16.414;2022-08-20T06:50:19;22.40;99.90
39103;DHT22;24847;48.218;16.414;2022-08-20T06:55:23;22.40;99.90
39103;DHT22;24847;48.218;16.414;2022-08-20T07:00:26;22.30;99.90
39103;DHT22;24847;48.218;16.414;2022-08-20T07:05:35;22.20;99.90
39103;DHT22;24847;48.218;16.414;2022-08-20T07:10:41;22.20;99.90
39103;DHT22;24847;48.218;16.414;2022-08-20T07:15:44;22.60;99.90
39103;DHT22;24847;48.218;16.414;2022-08-20T07:20:47;22.50;99.90
39103;DHT22;24847;48.218;16.414;2022-08-20T07:25:51;22.50;99.90
39103;DHT22;24847;48.218;16.414;2022-08-20T07:30:55;22.90;99.90
39103;DHT22;24847;48.218;16.414;2022-08-20T07:36:17;23.10;99.90
39103;DHT22;24847;48.218;16.414;2022-08-20T07:41:20;22.70;99.90
39103;DHT22;24847;48.218;16.414;2022-08-20T07:46:22;22.80;99.90
39103;DHT22;24847;48.218;16.414;2022-08-20T07:51:26;22.90;99.90
39103;DHT22;24847;48.218;16.414;2022-08-20T07:56:28;23.20;99.90
39103;DHT22;24847;48.218;16.414;2022-08-20T08:01:30;23.80;99.90
39103;DHT22;24847;48.218;16.414;2022-08-20T08:06:34;25.60;98.70
39103;DHT22;24847;48.218;16.414;2022-08-20T08:11:39;26.00;97.60
39103;DHT22;24847;48.218;16.414;2022-08-20T08:16:48;25.50;98.10
39103;DHT22;24847;48.218;16.414;2022-08-20T08:21:53;24.90;97.90
39103;DHT22;24847;48.218;16.414;2022-08-20T08:26:56;24.20;98.40
39103;DHT22;24847;48.218;16.414;2022-08-20T08:32:00;24.60;98.20
39103;DHT22;24847;48.218;16.414;2022-08-20T08:37:04;25.70;96.50
39103;DHT22;24847;48.218;16.414;2022-08-20T08:42:16;25.80;96.10
39103;DHT22;24847;48.218;16.414;2022-08-20T08:47:26;25.50;96.00
39103;DHT22;24847;48.218;16.414;2022-08-20T08:52:36;26.10;95.20
39103;DHT22;24847;48.218;16.414;2022-08-20T08:57:40;25.20;96.20
39103;DHT22;24847;48.218;16.414;2022-08-20T09:02:53;26.00;95.40
39103;DHT22;24847;48.218;16.414;2022-08-20T09:08:01;25.20;96.30
39103;DHT22;24847;48.218;16.414;2022-08-20T09:13:04;24.20;97.30
39103;DHT22;24847;48.218;16.414;2022-08-20T09:18:06;24.40;97.50
39103;DHT22;24847;48.218;16.414;2022-08-20T09:23:10;24.30;97.50
39103;DHT22;24847;48.218;16.414;2022-08-20T09:28:12;24.10;97.80
39103;DHT22;24847;48.218;16.414;2022-08-20T09:33:14;24.30;97.50
39103;DHT22;24847;48.218;16.414;2022-08-20T09:38:18;24.40;97.50
39103;DHT22;24847;48.218;16.414;2022-08-20T09:43:20;24.70;97.10
39103;DHT22;24847;48.218;16.414;2022-08-20T09:48:23;24.90;96.80
39103;DHT22;24847;48.218;16.414;2022-08-20T09:53:27;25.20;96.60
39103;DHT22;24847;48.218;16.414;2022-08-20T09:58:34;25.40;96.30
39103;DHT22;24847;48.218;16.414;2022-08-20T10:03:38;26.00;95.70
39103;DHT22;24847;48.218;16.414;2022-08-20T10:08:42;26.00;95.10
39103;DHT22;24847;48.218;16.414;2022-08-20T10:13:45;27.20;93.70
39103;DHT22;24847;48.218;16.414;2022-08-20T10:18:47;26.80;93.50
39103;DHT22;24847;48.218;16.414;2022-08-20T10:23:51;27.10;93.30
39103;DHT22;24847;48.218;16.414;2022-08-20T10:28:53;26.40;93.80
39103;DHT22;24847;48.218;16.414;2022-08-20T10:33:56;26.90;93.50
39103;DHT22;24847;48.218;16.414;2022-08-20T10:38:59;26.40;93.70
39103;DHT22;24847;48.218;16.414;2022-08-20T10:44:02;26.10;93.70
39103;DHT22;24847;48.218;16.414;2022-08-20T10:49:04;25.90;94.00
39103;DHT22;24847;48.218;16.414;2022-08-20T10:54:08;25.80;94.20
39103;DHT22;24847;48.218;16.414;2022-08-20T10:59:11;25.70;94.40
39103;DHT22;24847;48.218;16.414;2022-08-20T11:04:13;25.90;94.10
39103;DHT22;24847;48.218;16.414;2022-08-20T11:09:16;25.20;94.80
39103;DHT22;24847;48.218;16.414;2022-08-20T11:14:18;25.30;95.00
39103;DHT22;24847;48.218;16.414;2022-08-20T11:19:21;24.90;95.30
39103;DHT22;24847;48.218;16.414;2022-08-20T11:24:24;25.20;95.20
39103;DHT22;24847;48.218;16.414;2022-08-20T11:29:26;24.90;95.30
39103;DHT22;24847;48.218;16.414;2022-08-20T11:34:29;25.00;95.20
39103;DHT22;24847;48.218;16.414;2022-08-20T11:39:32;25.00;95.50
39103;DHT22;24847;48.218;16.414;2022-08-20T11:44:35;24.90;95.40
39103;DHT22;24847;48.218;16.414;2022-08-20T11:49:37;24.80;95.50
39103;DHT22;24847;48.218;16.414;2022-08-20T11:54:41;24.20;96.20
39103;DHT22;24847;48.218;16.414;2022-08-20T11:59:47;24.20;96.30
39103;DHT22;24847;48.218;16.414;2022-08-20T12:04:50;23.90;96.80
39103;DHT22;24847;48.218;16.414;2022-08-20T12:09:54;24.00;97.10
39103;DHT22;24847;48.218;16.414;2022-08-20T12:14:56;23.90;97.00
39103;DHT22;24847;48.218;16.414;2022-08-20T12:20:01;23.80;97.10
39103;DHT22;24847;48.218;16.414;2022-08-20T12:25:08;23.40;97.40
39103;DHT22;24847;48.218;16.414;2022-08-20T12:30:14;23.60;97.30
39103;DHT22;24847;48.218;16.414;2022-08-20T12:35:18;23.10;97.90
39103;DHT22;24847;48.218;16.414;2022-08-20T12:40:24;23.20;98.00
39103;DHT22;24847;48.218;16.414;2022-08-20T12:45:28;23.20;97.90
39103;DHT22;24847;48.218;16.414;2022-08-20T12:50:30;23.40;97.80
39103;DHT22;24847;48.218;16.414;2022-08-20T12:55:34;23.10;98.00
39103;DHT22;24847;48.218;16.414;2022-08-20T13:00:39;23.30;98.00
39103;DHT22;24847;48.218;16.414;2022-08-20T13:05:44;23.40;98.00
39103;DHT22;24847;48.218;16.414;2022-08-20T13:10:47;23.40;97.90
39103;DHT22;24847;48.218;16.414;2022-08-20T13:15:50;23.40;97.80
39103;DHT22;24847;48.218;16.414;2022-08-20T13:20:52;23.00;98.20
39103;DHT22;24847;48.218;16.414;2022-08-20T13:25:55;22.90;98.50
39103;DHT22;24847;48.218;16.414;2022-08-20T13:30:58;23.00;98.20
39103;DHT22;24847;48.218;16.414;2022-08-20T13:36:01;22.70;98.50
39103;DHT22;24847;48.218;16.414;2022-08-20T13:41:05;22.60;98.60
39103;DHT22;24847;48.218;16.414;2022-08-20T13:46:07;22.70;98.60
39103;DHT22;24847;48.218;16.414;2022-08-20T13:51:10;22.70;98.60
39103;DHT22;24847;48.218;16.414;2022-08-20T13:56:13;22.40;99.10
39103;DHT22;24847;48.218;16.414;2022-08-20T14:01:16;22.50;99.40
39103;DHT22;24847;48.218;16.414;2022-08-20T14:06:18;22.70;99.20
39103;DHT22;24847;48.218;16.414;2022-08-20T14:11:21;22.80;99.10
39103;DHT22;24847;48.218;16.414;2022-08-20T14:16:23;22.60;99.30
39103;DHT22;24847;48.218;16.414;2022-08-20T14:21:26;22.60;99.60
39103;DHT22;24847;48.218;16.414;2022-08-20T14:26:29;22.50;99.90
39103;DHT22;24847;48.218;16.414;2022-08-20T14:31:32;22.80;99.70
39103;DHT22;24847;48.218;16.414;2022-08-20T14:36:34;22.80;99.50
39103;DHT22;24847;48.218;16.414;2022-08-20T14:41:37;22.90;99.50
39103;DHT22;24847;48.218;16.414;2022-08-20T14:46:40;22.60;99.90
39103;DHT22;24847;48.218;16.414;2022-08-20T14:51:42;22.50;99.90
39103;DHT22;24847;48.218;16.414;2022-08-20T14:56:46;22.60;99.90
39103;DHT22;24847;48.218;16.414;2022-08-20T15:01:48;22.80;99.90
39103;DHT22;24847;48.218;16.414;2022-08-20T15:06:50;22.70;99.90
39103;DHT22;24847;48.218;16.414;2022-08-20T15:11:55;22.10;99.90
39103;DHT22;24847;48.218;16.414;2022-08-20T15:16:57;22.20;99.90
39103;DHT22;24847;48.218;16.414;2022-08-20T15:22:00;22.10;99.90
39103;DHT22;24847;48.218;16.414;2022-08-20T15:27:11;22.20;99.90
39103;DHT22;24847;48.218;16.414;2022-08-20T15:32:14;22.10;99.90
39103;DHT22;24847;48.218;16.414;2022-08-20T15:37:18;21.90;99.90
39103;DHT22;24847;48.218;16.414;2022-08-20T15:42:23;21.80;99.90
39103;DHT22;24847;48.218;16.414;2022-08-20T15:47:27;22.10;99.90
39103;DHT22;24847;48.218;16.414;2022-08-20T15:52:34;21.80;99.90
39103;DHT22;24847;48.218;16.414;2022-08-20T15:57:46;21.90;99.90
39103;DHT22;24847;48.218;16.414;2022-08-20T16:03:01;21.70;99.90
39103;DHT22;24847;48.218;16.414;2022-08-20T16:08:30;21.90;99.90
39103;DHT22;24847;48.218;16.414;2022-08-20T16:13:39;21.70;99.90
39103;DHT22;24847;48.218;16.414;2022-08-20T16:18:49;21.80;99.90
39103;DHT22;24847;48.218;16.414;2022-08-20T16:23:52;21.70;99.90
39103;DHT22;24847;48.218;16.414;2022-08-20T16:29:04;21.40;99.90
39103;DHT22;24847;48.218;16.414;2022-08-20T16:34:16;21.50;99.90
39103;DHT22;24847;48.218;16.414;2022-08-20T16:39:26;21.70;99.90
39103;DHT22;24847;48.218;16.414;2022-08-20T16:44:34;21.60;99.90
39103;DHT22;24847;48.218;16.414;2022-08-20T16:49:42;21.50;99.90
39103;DHT22;24847;48.218;16.414;2022-08-20T16:54:47;21.80;99.90
39103;DHT22;24847;48.218;16.414;2022-08-20T17:00:04;21.60;99.90
39103;DHT22;24847;48.218;16.414;2022-08-20T17:05:10;21.80;99.90
39103;DHT22;24847;48.218;16.414;2022-08-20T17:10:17;21.50;99.90
39103;DHT22;24847;48.218;16.414;2022-08-20T17:15:25;21.60;99.90
39103;DHT22;24847;48.218;16.414;2022-08-20T17:20:29;21.30;99.90
39103;DHT22;24847;48.218;16.414;2022-08-20T17:25:34;21.60;99.90
39103;DHT22;24847;48.218;16.414;2022-08-20T17:30:39;21.60;99.90
39103;DHT22;24847;48.218;16.414;2022-08-20T17:35:47;21.20;99.90
39103;DHT22;24847;48.218;16.414;2022-08-20T17:40:57;21.20;99.90
39103;DHT22;24847;48.218;16.414;2022-08-20T17:46:06;21.00;99.90
39103;DHT22;24847;48.218;16.414;2022-08-20T17:51:15;21.00;99.90
39103;DHT22;24847;48.218;16.414;2022-08-20T17:56:20;20.90;99.90
39103;DHT22;24847;48.218;16.414;2022-08-20T18:01:28;21.00;99.90
39103;DHT22;24847;48.218;16.414;2022-08-20T18:06:34;21.00;99.90
39103;DHT22;24847;48.218;16.414;2022-08-20T18:11:43;20.90;99.90
39103;DHT22;24847;48.218;16.414;2022-08-20T18:17:00;20.70;99.90
39103;DHT22;24847;48.218;16.414;2022-08-20T18:22:11;20.80;99.90
39103;DHT22;24847;48.218;16.414;2022-08-20T18:27:16;20.80;99.90
39103;DHT22;24847;48.218;16.414;2022-08-20T18:32:28;20.70;99.90
39103;DHT22;24847;48.218;16.414;2022-08-20T18:37:32;21.00;99.90
39103;DHT22;24847;48.218;16.414;2022-08-20T18:42:35;20.80;99.90
39103;DHT22;24847;48.218;16.414;2022-08-20T18:47:42;20.70;99.90
39103;DHT22;24847;48.218;16.414;2022-08-20T18:52:48;20.50;99.90
39103;DHT22;24847;48.218;16.414;2022-08-20T18:57:54;20.50;99.90
39103;DHT22;24847;48.218;16.414;2022-08-20T19:03:14;20.40;99.90
39103;DHT22;24847;48.218;16.414;2022-08-20T19:08:23;20.60;99.90
39103;DHT22;24847;48.218;16.414;2022-08-20T19:14:03;20.70;99.90
39103;DHT22;24847;48.218;16.414;2022-08-20T19:19:25;20.70;99.90
39103;DHT22;24847;48.218;16.414;2022-08-20T19:24:31;20.60;99.90
39103;DHT22;24847;48.218;16.414;2022-08-20T19:29:36;20.60;99.90
39103;DHT22;24847;48.218;16.414;2022-08-20T19:34:49;20.70;99.90
39103;DHT22;24847;48.218;16.414;2022-08-20T19:39:53;20.60;99.90
39103;DHT22;24847;48.218;16.414;2022-08-20T19:44:58;20.60;99.90
39103;DHT22;24847;48.218;16.414;2022-08-20T19:50:15;20.50;99.90
39103;DHT22;24847;48.218;16.414;2022-08-20T19:55:25;20.20;99.90
39103;DHT22;24847;48.218;16.414;2022-08-20T20:00:37;20.20;99.90
39103;DHT22;24847;48.218;16.414;2022-08-20T20:05:51;20.10;99.90
39103;DHT22;24847;48.218;16.414;2022-08-20T20:10:57;20.20;99.90
39103;DHT22;24847;48.218;16.414;2022-08-20T20:16:02;20.10;99.90
39103;DHT22;24847;48.218;16.414;2022-08-20T20:21:12;20.30;99.90
39103;DHT22;24847;48.218;16.414;2022-08-20T20:26:18;20.00;99.90
39103;DHT22;24847;48.218;16.414;2022-08-20T20:31:23;20.00;99.90
39103;DHT22;24847;48.218;16.414;2022-08-20T20:36:34;20.30;99.90
39103;DHT22;24847;48.218;16.414;2022-08-20T20:41:38;20.10;99.90
39103;DHT22;24847;48.218;16.414;2022-08-20T20:46:55;19.90;99.90
39103;DHT22;24847;48.218;16.414;2022-08-20T20:52:02;20.00;99.90
39103;DHT22;24847;48.218;16.414;2022-08-20T20:57:07;20.00;99.90
39103;DHT22;24847;48.218;16.414;2022-08-20T21:02:11;20.00;99.90
39103;DHT22;24847;48.218;16.414;2022-08-20T21:07:17;20.10;99.90
39103;DHT22;24847;48.218;16.414;2022-08-20T21:12:21;20.10;99.90
39103;DHT22;24847;48.218;16.414;2022-08-20T21:17:23;20.20;99.90
39103;DHT22;24847;48.218;16.414;2022-08-20T21:22:27;20.00;99.90
39103;DHT22;24847;48.218;16.414;2022-08-20T21:27:29;20.10;99.90
39103;DHT22;24847;48.218;16.414;2022-08-20T21:32:32;19.80;99.90
39103;DHT22;24847;48.218;16.414;2022-08-20T21:37:37;19.80;99.90
39103;DHT22;24847;48.218;16.414;2022-08-20T21:42:40;19.70;99.90
39103;DHT22;24847;48.218;16.414;2022-08-20T21:47:43;19.60;99.90
39103;DHT22;24847;48.218;16.414;2022-08-20T21:52:47;19.40;99.90
39103;DHT22;24847;48.218;16.414;2022-08-20T21:57:49;19.10;99.90
39103;DHT22;24847;48.218;16.414;2022-08-20T22:02:51;19.00;99.90
39103;DHT22;24847;48.218;16.414;2022-08-20T22:07:55;19.00;99.90
39103;DHT22;24847;48.218;16.414;2022-08-20T22:12:57;19.30;99.90
39103;DHT22;24847;48.218;16.414;2022-08-20T22:18:00;19.20;99.90
39103;DHT22;24847;48.218;16.414;2022-08-20T22:23:04;19.30;99.90
39103;DHT22;24847;48.218;16.414;2022-08-20T22:28:07;19.30;99.90
39103;DHT22;24847;48.218;16.414;2022-08-20T22:33:20;19.30;99.90
39103;DHT22;24847;48.218;16.414;2022-08-20T22:38:24;19.00;99.90
39103;DHT22;24847;48.218;16.414;2022-08-20T22:43:27;18.80;99.90
39103;DHT22;24847;48.218;16.414;2022-08-20T22:48:29;19.00;99.90
39103;DHT22;24847;48.218;16.414;2022-08-20T22:53:33;18.80;99.90
39103;DHT22;24847;48.218;16.414;2022-08-20T22:58:36;18.80;99.90
39103;DHT22;24847;48.218;16.414;2022-08-20T23:03:38;19.10;99.90
39103;DHT22;24847;48.218;16.414;2022-08-20T23:08:42;18.90;99.90
39103;DHT22;24847;48.218;16.414;2022-08-20T23:13:45;18.90;99.90
39103;DHT22;24847;48.218;16.414;2022-08-20T23:18:47;19.00;99.90
39103;DHT22;24847;48.218;16.414;2022-08-20T23:23:50;18.70;99.90
39103;DHT22;24847;48.218;16.414;2022-08-20T23:28:53;18.80;99.90
39103;DHT22;24847;48.218;16.414;2022-08-20T23:33:55;18.70;99.90
39103;DHT22;24847;48.218;16.414;2022-08-20T23:38:58;18.70;99.90
39103;DHT22;24847;48.218;16.414;2022-08-20T23:44:00;18.70;99.90
39103;DHT22;24847;48.218;16.414;2022-08-20T23:49:03;18.60;99.90
39103;DHT22;24847;48.218;16.414;2022-08-20T23:54:07;18.60;99.90
39103;DHT22;24847;48.218;16.414;2022-08-20T23:59:09;18.70;99.90
